Time;durP1;ratioP1;P1;durP2;ratioP2;P2;SDS_P1;SDS_P2;PMS_P1;PMS_P2;Temp;Humidity;BMP_temperature;BMP_pressure;BME280_temperature;BME280_humidity;BME280_pressure;Samples;Min_cycle;Max_cycle;Signal;HPM_P1;HPM_P2
2022/07/20 00:01:20;;;;;;;;;;;;;;;27.97;39.33;101249.69;5062679;28;1155;-43
2022/07/20 00:03:46;;;;;;;;;;;;;;;28.01;39.50;101259.13;5074243;28;949;-45
2022/07/20 00:06:12;;;;;;;;;;;;;;;28.02;39.59;101251.88;5070272;28;942;-44
2022/07/20 00:11:21;;;;;;;;;;;;;;;27.99;39.64;101248.50;5068769;28;1906;-44
2022/07/20 00:13:56;;;;;;;;;;;;;;;28.04;39.32;101249.84;5066297;28;1001;-43
2022/07/20 00:16:22;;;;;;;;;;;;;;;28.02;38.89;101247.31;5064943;28;1068;-47
2022/07/20 00:18:48;;;;;;;;;;;;;;;28.03;39.09;101249.00;5060789;28;1048;-46
2022/07/20 00:21:13;;;;;;;;;;;;;;;28.05;38.84;101246.97;5063763;28;981;-47
2022/07/20 00:23:38;;;;;;;;;;;;;;;27.97;39.06;101245.16;5069435;28;931;-46
2022/07/20 00:26:04;;;;;;;;;;;;;;;28.04;39.00;101244.44;5064884;28;1154;-45
2022/07/20 00:28:29;;;;;;;;;;;;;;;28.06;39.14;101247.81;5066420;28;1004;-45
2022/07/20 00:30:54;;;;;;;;;;;;;;;28.05;39.26;101244.25;5070804;28;1894;-49
2022/07/20 00:33:20;;;;;;;;;;;;;;;28.04;38.96;101241.72;5065496;28;1057;-46
2022/07/20 00:35:45;;;;;;;;;;;;;;;28.01;39.51;101242.91;5068924;28;935;-47
2022/07/20 00:38:10;;;;;;;;;;;;;;;28.02;39.69;101241.06;5074389;28;1041;-46
2022/07/20 00:40:35;;;;;;;;;;;;;;;28.02;39.39;101238.34;5069463;28;1024;-47
2022/07/20 00:43:01;;;;;;;;;;;;;;;28.02;39.48;101231.09;5065466;28;1111;-48
2022/07/20 00:45:26;;;;;;;;;;;;;;;28.02;39.25;101233.78;5066394;28;942;-46
2022/07/20 00:47:51;;;;;;;;;;;;;;;28.02;39.54;101227.53;5069578;28;1104;-45
2022/07/20 00:50:17;;;;;;;;;;;;;;;28.04;39.23;101225.50;5065070;28;1894;-43
2022/07/20 00:52:42;;;;;;;;;;;;;;;28.05;39.22;101224.47;5063337;28;1155;-44
2022/07/20 00:55:08;;;;;;;;;;;;;;;28.02;39.30;101219.41;5051871;28;1024;-45
2022/07/20 00:57:34;;;;;;;;;;;;;;;28.07;39.26;101227.84;5050561;28;1052;-50
2022/07/20 00:59:59;;;;;;;;;;;;;;;28.03;39.23;101223.81;5068453;28;1044;-45
2022/07/20 01:02:24;;;;;;;;;;;;;;;28.08;39.28;101221.41;5067679;28;1036;-46
2022/07/20 01:04:50;;;;;;;;;;;;;;;28.02;39.45;101222.97;5067236;28;1009;-44
2022/07/20 01:07:15;;;;;;;;;;;;;;;28.05;39.67;101216.34;5070964;28;973;-45
2022/07/20 01:09:40;;;;;;;;;;;;;;;28.03;39.44;101218.41;5069035;28;1910;-44
2022/07/20 01:12:08;;;;;;;;;;;;;;;28.03;39.58;101210.31;5069189;28;945;-44
2022/07/20 01:14:33;;;;;;;;;;;;;;;27.94;39.77;101210.34;5068745;28;1021;-43
2022/07/20 01:16:58;;;;;;;;;;;;;;;28.05;39.49;101211.81;5063102;28;1178;-45
2022/07/20 01:19:24;;;;;;;;;;;;;;;28.12;39.67;101209.22;5065530;28;981;-45
2022/07/20 01:21:49;;;;;;;;;;;;;;;28.16;39.10;101209.72;5067736;28;1041;-44
2022/07/20 01:24:14;;;;;;;;;;;;;;;28.19;38.63;101207.50;5070492;28;1147;-46
2022/07/20 01:26:40;;;;;;;;;;;;;;;28.22;38.56;101215.25;5066023;28;1044;-44
2022/07/20 01:29:05;;;;;;;;;;;;;;;28.21;38.43;101210.84;5063082;28;1167;-46
2022/07/20 01:31:31;;;;;;;;;;;;;;;28.19;38.69;101212.91;5049180;28;1894;-43
2022/07/20 01:33:56;;;;;;;;;;;;;;;28.23;38.33;101207.97;5052157;28;997;-44
2022/07/20 01:36:21;;;;;;;;;;;;;;;28.23;38.01;101207.97;5072514;28;977;-44
2022/07/20 01:38:46;;;;;;;;;;;;;;;28.22;37.42;101204.44;5071599;28;1064;-47
2022/07/20 01:41:12;;;;;;;;;;;;;;;28.21;37.15;101207.31;5069843;28;1151;-43
2022/07/20 01:43:37;;;;;;;;;;;;;;;28.20;37.01;101211.03;5072444;28;973;-44
2022/07/20 01:46:02;;;;;;;;;;;;;;;28.21;36.96;101212.72;5072902;28;1172;-43
2022/07/20 01:48:28;;;;;;;;;;;;;;;28.21;36.52;101210.84;5073783;28;997;-42
2022/07/20 01:50:53;;;;;;;;;;;;;;;28.23;36.61;101213.38;5066663;28;1914;-44
2022/07/20 01:53:18;;;;;;;;;;;;;;;28.19;37.04;101212.91;5073536;28;1005;-47
2022/07/20 01:55:43;;;;;;;;;;;;;;;28.20;36.88;101213.72;5070886;28;994;-48
2022/07/20 01:58:09;;;;;;;;;;;;;;;28.20;36.51;101208.31;5062631;28;1198;-44
2022/07/20 02:00:34;;;;;;;;;;;;;;;28.17;37.01;101206.84;5068683;28;1037;-44
2022/07/20 02:02:59;;;;;;;;;;;;;;;28.20;36.63;101205.63;5070347;28;949;-43
2022/07/20 02:05:25;;;;;;;;;;;;;;;28.17;36.67;101217.66;5075576;28;957;-44
2022/07/20 02:07:50;;;;;;;;;;;;;;;28.13;36.50;101210.91;5072329;28;1052;-44
2022/07/20 02:10:15;;;;;;;;;;;;;;;28.17;36.43;101209.53;5067960;28;1910;-47
2022/07/20 02:12:41;;;;;;;;;;;;;;;28.19;36.44;101212.91;5069705;28;985;-44
2022/07/20 02:15:07;;;;;;;;;;;;;;;28.17;36.44;101211.38;5072379;28;1167;-43
2022/07/20 02:17:32;;;;;;;;;;;;;;;28.16;36.44;101207.84;5066297;28;810;-43
2022/07/20 02:19:57;;;;;;;;;;;;;;;28.19;36.39;101217.47;5064534;28;1214;-43
2022/07/20 02:22:22;;;;;;;;;;;;;;;28.17;36.29;101216.78;5072788;28;1108;-45
2022/07/20 02:24:48;;;;;;;;;;;;;;;28.23;35.84;101216.06;5065158;28;1013;-46
2022/07/20 02:27:13;;;;;;;;;;;;;;;28.20;36.24;101222.69;5073721;28;1037;-46
2022/07/20 02:29:38;;;;;;;;;;;;;;;28.19;36.24;101218.31;5042124;28;2301;-45
2022/07/20 02:32:04;;;;;;;;;;;;;;;28.17;35.99;101224.91;5064831;28;1044;-45
2022/07/20 02:34:29;;;;;;;;;;;;;;;28.18;35.86;101222.03;5074405;28;1200;-45
2022/07/20 02:36:54;;;;;;;;;;;;;;;28.15;36.02;101214.28;5075910;28;949;-44
2022/07/20 02:39:19;;;;;;;;;;;;;;;28.12;36.29;101217.34;5069603;28;950;-44
2022/07/20 02:41:45;;;;;;;;;;;;;;;28.18;35.72;101221.19;5074088;28;989;-46
2022/07/20 02:44:10;;;;;;;;;;;;;;;28.16;36.15;101218.66;5072143;28;1036;-46
2022/07/20 02:46:37;;;;;;;;;;;;;;;28.16;35.75;101217.81;5067221;28;1021;-44
2022/07/20 02:49:02;;;;;;;;;;;;;;;28.09;35.82;101221.22;5070870;28;1123;-45
2022/07/20 02:51:27;;;;;;;;;;;;;;;28.12;35.98;101222.75;5066438;28;1898;-45
2022/07/20 02:53:53;;;;;;;;;;;;;;;28.11;35.65;101224.59;5068830;28;1020;-43
2022/07/20 02:56:18;;;;;;;;;;;;;;;28.05;36.38;101232.59;5072639;28;1124;-45
2022/07/20 02:58:43;;;;;;;;;;;;;;;28.10;35.78;101224.78;5064471;28;1080;-47
2022/07/20 03:01:08;;;;;;;;;;;;;;;28.11;35.95;101221.91;5071514;28;1148;-44
2022/07/20 03:03:34;;;;;;;;;;;;;;;28.08;36.16;101232.22;5069727;28;1024;-46
2022/07/20 03:06:00;;;;;;;;;;;;;;;28.10;35.74;101227.47;5070194;28;953;-44
2022/07/20 03:08:25;;;;;;;;;;;;;;;28.07;35.63;101231.41;5075503;28;1210;-44
2022/07/20 03:10:51;;;;;;;;;;;;;;;28.04;36.02;101229.06;5067505;28;1961;-46
2022/07/20 03:13:16;;;;;;;;;;;;;;;28.06;35.73;101228.88;5070283;28;1077;-44
2022/07/20 03:15:41;;;;;;;;;;;;;;;28.02;35.71;101232.94;5066932;28;994;-45
2022/07/20 03:18:06;;;;;;;;;;;;;;;28.17;35.25;101235.72;5065695;28;1031;-45
2022/07/20 03:20:33;;;;;;;;;;;;;;;28.21;34.91;101239.78;5063204;28;962;-45
2022/07/20 03:22:58;;;;;;;;;;;;;;;28.12;35.65;101241.69;5075851;28;1032;-45
2022/07/20 03:25:23;;;;;;;;;;;;;;;28.13;35.83;101240.66;5065205;28;1140;-47
2022/07/20 03:27:51;;;;;;;;;;;;;;;28.16;35.62;101240.28;5066951;28;1197;-51
2022/07/20 03:30:16;;;;;;;;;;;;;;;28.14;35.78;101242.34;5067132;28;1891;-49
2022/07/20 03:32:42;;;;;;;;;;;;;;;27.60;36.18;101243.91;5063441;28;1465;-44
2022/07/20 03:35:08;;;;;;;;;;;;;;;26.82;36.97;101242.50;5061391;28;1136;-44
2022/07/20 03:37:33;;;;;;;;;;;;;;;26.37;38.46;101242.81;5068340;28;1106;-44
2022/07/20 03:39:59;;;;;;;;;;;;;;;26.45;38.30;101239.28;5063059;28;1191;-46
2022/07/20 03:42:24;;;;;;;;;;;;;;;26.22;38.40;101239.91;5065191;28;1135;-45
2022/07/20 03:44:49;;;;;;;;;;;;;;;26.22;38.61;101247.97;5074687;28;981;-46
2022/07/20 03:47:14;;;;;;;;;;;;;;;26.28;38.64;101241.91;5068643;28;1480;-44
2022/07/20 03:49:40;;;;;;;;;;;;;;;26.00;40.03;101247.56;5065375;28;1878;-47
2022/07/20 03:52:05;;;;;;;;;;;;;;;25.10;40.72;101241.53;5068776;28;1474;-45
2022/07/20 03:54:30;;;;;;;;;;;;;;;24.12;43.10;101251.16;5062923;28;1159;-45
2022/07/20 03:56:56;;;;;;;;;;;;;;;25.76;39.67;101251.84;5072157;28;1060;-48
2022/07/20 03:59:21;;;;;;;;;;;;;;;26.07;39.19;101249.63;5066276;28;1242;-53
2022/07/20 04:01:46;;;;;;;;;;;;;;;26.07;38.81;101250.47;5070233;28;1056;-51
2022/07/20 04:04:12;;;;;;;;;;;;;;;26.44;38.43;101251.09;5068539;28;829;-56
2022/07/20 04:06:37;;;;;;;;;;;;;;;26.75;38.03;101258.53;5068220;28;1021;-50
2022/07/20 04:09:02;;;;;;;;;;;;;;;26.90;37.90;101266.81;5062650;28;1092;-50
2022/07/20 04:11:28;;;;;;;;;;;;;;;26.86;37.79;101264.63;5048475;28;1963;-51
2022/07/20 04:13:53;;;;;;;;;;;;;;;27.07;37.40;101269.53;5070277;28;1056;-52
2022/07/20 04:16:18;;;;;;;;;;;;;;;27.05;37.11;101268.00;5072010;28;1072;-48
2022/07/20 04:18:44;;;;;;;;;;;;;;;27.14;37.92;101265.13;5070528;28;1146;-48
2022/07/20 04:21:09;;;;;;;;;;;;;;;27.08;37.57;101273.91;5062218;28;1064;-49
2022/07/20 04:23:34;;;;;;;;;;;;;;;27.14;37.38;101277.78;5070832;28;1087;-46
2022/07/20 04:25:59;;;;;;;;;;;;;;;27.10;37.37;101273.72;5070744;28;1135;-48
2022/07/20 04:28:25;;;;;;;;;;;;;;;27.26;37.23;101270.16;5073854;28;1032;-49
2022/07/20 04:30:50;;;;;;;;;;;;;;;27.11;37.02;101275.44;5067089;28;1953;-52
2022/07/20 04:33:15;;;;;;;;;;;;;;;27.17;37.36;101285.56;5067564;28;1262;-52
2022/07/20 04:35:41;;;;;;;;;;;;;;;26.95;37.36;101276.25;5065837;28;1238;-49
2022/07/20 04:38:06;;;;;;;;;;;;;;;26.97;37.35;101272.38;5065546;28;1100;-50
2022/07/20 04:40:31;;;;;;;;;;;;;;;26.98;37.42;101271.34;5065861;28;1199;-53
2022/07/20 04:42:56;;;;;;;;;;;;;;;26.92;37.43;101269.34;5065843;28;1231;-49
2022/07/20 04:45:22;;;;;;;;;;;;;;;27.05;36.71;101274.25;5068111;28;1246;-46
2022/07/20 04:47:47;;;;;;;;;;;;;;;27.29;36.67;101274.38;5070666;28;1187;-47
2022/07/20 04:50:12;;;;;;;;;;;;;;;27.39;36.47;101270.47;5069872;28;1941;-45
2022/07/20 04:52:38;;;;;;;;;;;;;;;27.48;36.70;101268.59;5066553;28;1163;-46
2022/07/20 04:55:03;;;;;;;;;;;;;;;27.56;36.82;101275.00;5066415;28;1045;-46
2022/07/20 04:57:29;;;;;;;;;;;;;;;27.54;36.58;101271.63;5068257;28;1188;-49
2022/07/20 04:59:54;;;;;;;;;;;;;;;27.47;37.06;101279.59;5045818;28;1112;-46
2022/07/20 05:02:19;;;;;;;;;;;;;;;27.51;37.05;101286.31;5069450;28;1290;-50
2022/07/20 05:04:46;;;;;;;;;;;;;;;27.65;36.79;101282.06;5067441;28;1255;-49
2022/07/20 05:07:12;;;;;;;;;;;;;;;27.62;37.30;101280.56;5065346;28;1211;-51
2022/07/20 05:09:37;;;;;;;;;;;;;;;27.57;37.00;101277.53;5051025;28;1918;-47
2022/07/20 05:12:03;;;;;;;;;;;;;;;27.49;37.01;101283.78;5070679;28;1306;-50
2022/07/20 05:14:28;;;;;;;;;;;;;;;27.47;37.12;101282.28;5070785;28;1311;-51
2022/07/20 05:16:53;;;;;;;;;;;;;;;27.47;36.95;101282.28;5073633;28;1271;-46
2022/07/20 05:19:19;;;;;;;;;;;;;;;27.49;36.87;101282.97;5070766;28;1306;-52
2022/07/20 05:21:44;;;;;;;;;;;;;;;27.42;37.10;101281.97;5069136;28;1219;-50
2022/07/20 05:24:09;;;;;;;;;;;;;;;27.37;37.24;101285.19;5071846;28;1258;-48
2022/07/20 05:26:34;;;;;;;;;;;;;;;27.67;36.51;101285.44;5068293;28;1207;-50
2022/07/20 05:29:00;;;;;;;;;;;;;;;27.81;35.92;101289.31;5069935;28;1258;-51
2022/07/20 05:31:25;;;;;;;;;;;;;;;27.88;36.26;101289.44;5070363;28;1902;-51
2022/07/20 05:33:50;;;;;;;;;;;;;;;27.93;35.82;101289.75;5070021;28;1294;-46
2022/07/20 05:36:16;;;;;;;;;;;;;;;27.92;35.70;101296.19;5070022;28;1143;-49
2022/07/20 05:38:41;;;;;;;;;;;;;;;27.70;36.37;101293.25;5071387;28;1148;-47
2022/07/20 05:41:06;;;;;;;;;;;;;;;27.79;36.36;101298.63;5071049;28;1227;-44
2022/07/20 05:43:31;;;;;;;;;;;;;;;27.64;36.69;101296.59;5070541;28;1286;-46
2022/07/20 05:45:57;;;;;;;;;;;;;;;27.67;36.57;101296.25;5069889;28;1095;-46
2022/07/20 05:48:22;;;;;;;;;;;;;;;27.66;36.54;101297.25;5068286;28;1136;-49
2022/07/20 05:50:47;;;;;;;;;;;;;;;27.69;36.68;101293.41;5070648;28;1951;-48
2022/07/20 05:53:13;;;;;;;;;;;;;;;27.69;36.59;101296.97;5070265;28;1219;-48
2022/07/20 05:55:38;;;;;;;;;;;;;;;27.74;36.37;101293.75;5068390;28;1270;-48
2022/07/20 05:58:04;;;;;;;;;;;;;;;27.77;36.28;101296.09;5069256;28;1274;-47
2022/07/20 06:00:29;;;;;;;;;;;;;;;27.75;36.06;101293.56;5071509;28;1239;-49
2022/07/20 06:02:54;;;;;;;;;;;;;;;27.83;36.12;101287.28;5071296;28;1287;-52
2022/07/20 06:05:20;;;;;;;;;;;;;;;28.08;35.79;101289.88;5076453;28;1048;-46
2022/07/20 06:07:45;;;;;;;;;;;;;;;28.23;35.53;101291.81;5064723;28;1131;-48
2022/07/20 06:10:10;;;;;;;;;;;;;;;28.29;35.34;101287.56;5078082;28;1902;-48
2022/07/20 06:12:36;;;;;;;;;;;;;;;28.31;35.13;101290.94;5065556;28;1033;-46
2022/07/20 06:15:01;;;;;;;;;;;;;;;28.23;35.25;101287.25;5067170;28;1160;-47
2022/07/20 06:17:33;;;;;;;;;;;;;;;28.27;35.42;101285.03;5069493;28;974;-46
2022/07/20 06:20:00;;;;;;;;;;;;;;;28.34;34.88;101287.91;5045735;28;1230;-48
2022/07/20 06:22:26;;;;;;;;;;;;;;;28.44;35.73;101284.97;5052592;28;1187;-54
2022/07/20 06:24:51;;;;;;;;;;;;;;;28.46;35.54;101277.53;5060970;28;981;-48
2022/07/20 06:27:16;;;;;;;;;;;;;;;28.55;34.74;101279.16;5073285;28;1163;-49
2022/07/20 06:29:41;;;;;;;;;;;;;;;28.51;35.37;101277.81;5066543;28;1899;-49
2022/07/20 06:32:07;;;;;;;;;;;;;;;28.49;35.57;101279.88;5065612;28;1107;-52
2022/07/20 06:34:33;;;;;;;;;;;;;;;28.46;35.88;101282.94;5071506;28;1104;-51
2022/07/20 06:36:58;;;;;;;;;;;;;;;28.41;36.06;101277.22;5059203;28;1203;-53
2022/07/20 06:39:23;;;;;;;;;;;;;;;28.46;35.51;101281.06;5064983;28;985;-51
2022/07/20 06:41:49;;;;;;;;;;;;;;;28.28;36.22;101284.00;5073411;28;1124;-53
2022/07/20 06:44:14;;;;;;;;;;;;;;;28.35;36.12;101289.59;5069144;28;969;-49
2022/07/20 06:46:39;;;;;;;;;;;;;;;28.44;35.49;101283.13;5064612;28;1151;-47
2022/07/20 06:49:06;;;;;;;;;;;;;;;28.49;35.89;101282.56;5072740;28;1096;-49
2022/07/20 06:51:31;;;;;;;;;;;;;;;28.59;35.61;101279.63;5073459;28;2374;-47
2022/07/20 06:53:56;;;;;;;;;;;;;;;28.39;35.63;101284.66;5070199;28;1053;-53
2022/07/20 06:56:21;;;;;;;;;;;;;;;28.19;35.94;101280.53;5069118;28;1008;-50
2022/07/20 06:58:47;;;;;;;;;;;;;;;28.04;36.57;101271.47;5074335;28;1211;-49
2022/07/20 07:01:12;;;;;;;;;;;;;;;28.22;36.09;101284.72;5069779;28;1080;-49
2022/07/20 07:03:37;;;;;;;;;;;;;;;28.29;35.73;101274.91;5073518;28;1251;-48
2022/07/20 07:06:03;;;;;;;;;;;;;;;28.36;35.54;101280.47;5060799;28;1199;-43
2022/07/20 07:08:28;;;;;;;;;;;;;;;28.43;35.36;101278.72;5063107;28;1025;-41
2022/07/20 07:10:54;;;;;;;;;;;;;;;28.56;35.07;101282.69;5070858;28;1898;-50
2022/07/20 07:13:19;;;;;;;;;;;;;;;28.58;35.08;101276.06;5066686;28;1144;-50
2022/07/20 07:15:44;;;;;;;;;;;;;;;28.61;34.60;101280.31;5069909;28;1065;-52
2022/07/20 07:18:09;;;;;;;;;;;;;;;28.64;34.92;101270.97;5068720;28;1247;-48
2022/07/20 07:20:35;;;;;;;;;;;;;;;28.70;35.18;101275.66;5071568;28;1195;-48
2022/07/20 07:23:00;;;;;;;;;;;;;;;28.77;34.52;101271.19;5067129;28;1313;-48
2022/07/20 07:25:25;;;;;;;;;;;;;;;28.67;34.94;101267.88;5066946;28;1258;-49
2022/07/20 07:27:51;;;;;;;;;;;;;;;28.66;35.20;101267.03;5068843;28;1235;-49
2022/07/20 07:30:16;;;;;;;;;;;;;;;28.71;34.47;101261.94;5065419;28;1903;-52
2022/07/20 07:32:41;;;;;;;;;;;;;;;28.67;34.90;101266.03;5063844;28;1253;-50
2022/07/20 07:35:07;;;;;;;;;;;;;;;28.68;34.93;101259.59;5063724;28;1294;-51
2022/07/20 07:37:32;;;;;;;;;;;;;;;28.69;34.42;101265.84;5067357;28;1223;-50
2022/07/20 07:39:57;;;;;;;;;;;;;;;28.66;34.49;101263.50;5065773;28;1243;-53
2022/07/20 07:42:23;;;;;;;;;;;;;;;28.59;35.05;101264.22;5063674;28;1251;-48
2022/07/20 07:44:49;;;;;;;;;;;;;;;28.70;34.60;101265.66;5067813;28;1243;-50
2022/07/20 07:47:14;;;;;;;;;;;;;;;28.73;34.82;101259.03;5068602;28;1224;-47
2022/07/20 07:49:39;;;;;;;;;;;;;;;28.55;35.06;101262.91;5067810;28;1890;-50
2022/07/20 07:52:05;;;;;;;;;;;;;;;28.30;34.93;101268.44;5070213;28;961;-48
2022/07/20 07:54:30;;;;;;;;;;;;;;;28.21;35.84;101266.81;5071486;28;1119;-48
2022/07/20 07:56:55;;;;;;;;;;;;;;;28.22;35.79;101258.53;5064329;28;969;-48
2022/07/20 07:59:20;;;;;;;;;;;;;;;28.17;35.87;101260.94;5064137;28;1057;-45
2022/07/20 08:01:46;;;;;;;;;;;;;;;27.90;35.11;101267.63;5075310;28;1179;-47
2022/07/20 08:04:12;;;;;;;;;;;;;;;26.92;34.41;101266.63;5069102;28;990;-47
2022/07/20 08:06:37;;;;;;;;;;;;;;;27.37;34.69;101260.88;5071547;28;1119;-50
2022/07/20 08:09:02;;;;;;;;;;;;;;;27.92;34.80;101266.47;5070592;28;1223;-51
2022/07/20 08:11:28;;;;;;;;;;;;;;;28.14;34.57;101264.00;5065387;28;1963;-49
2022/07/20 08:13:53;;;;;;;;;;;;;;;28.23;34.23;101249.38;5071504;28;1162;-44
2022/07/20 08:16:18;;;;;;;;;;;;;;;28.42;33.92;101257.25;5069901;28;1171;-52
2022/07/20 08:18:44;;;;;;;;;;;;;;;28.44;34.02;101256.06;5063546;28;1057;-49
2022/07/20 08:21:09;;;;;;;;;;;;;;;28.66;34.09;101258.91;5058369;28;1094;-50
2022/07/20 08:23:34;;;;;;;;;;;;;;;28.59;34.03;101249.84;5064777;28;1298;-47
2022/07/20 08:26:00;;;;;;;;;;;;;;;28.62;33.73;101249.50;5063552;28;1136;-47
2022/07/20 08:28:25;;;;;;;;;;;;;;;28.53;34.34;101248.72;5070257;28;1329;-49
2022/07/20 08:30:51;;;;;;;;;;;;;;;28.39;34.61;101252.19;5071355;28;1927;-45
2022/07/20 08:33:16;;;;;;;;;;;;;;;28.21;34.46;101240.59;5071714;28;1254;-48
2022/07/20 08:35:41;;;;;;;;;;;;;;;28.08;34.94;101243.91;5069564;28;997;-49
2022/07/20 08:38:07;;;;;;;;;;;;;;;28.21;35.43;101239.78;5049002;28;1014;-48
2022/07/20 08:40:32;;;;;;;;;;;;;;;28.24;34.50;101240.22;5069120;28;993;-49
2022/07/20 08:42:58;;;;;;;;;;;;;;;28.38;34.32;101245.13;5070929;28;1115;-50
2022/07/20 08:45:23;;;;;;;;;;;;;;;28.58;34.56;101242.75;5066736;28;1174;-47
2022/07/20 08:47:49;;;;;;;;;;;;;;;28.65;34.07;101240.16;5072600;28;945;-48
2022/07/20 08:50:14;;;;;;;;;;;;;;;28.64;33.42;101233.06;5073089;28;1961;-47
2022/07/20 08:52:39;;;;;;;;;;;;;;;28.54;33.55;101227.91;5073959;28;1044;-45
2022/07/20 08:55:05;;;;;;;;;;;;;;;28.40;33.86;101224.09;5074740;28;1081;-48
2022/07/20 08:57:30;;;;;;;;;;;;;;;28.70;33.46;101221.50;5070126;28;1060;-43
2022/07/20 08:59:55;;;;;;;;;;;;;;;28.82;33.33;101222.78;5069852;28;1143;-49
2022/07/20 09:02:21;;;;;;;;;;;;;;;28.83;34.04;101226.28;5075768;28;1207;-50
2022/07/20 09:04:49;;;;;;;;;;;;;;;28.95;32.74;101215.88;5070709;28;1174;-48
2022/07/20 09:07:15;;;;;;;;;;;;;;;28.82;32.78;101214.66;5074186;28;1147;-45
2022/07/20 09:09:40;;;;;;;;;;;;;;;28.77;32.97;101210.78;5068170;28;1161;-47
2022/07/20 09:12:06;;;;;;;;;;;;;;;28.73;32.98;101207.59;5055865;28;961;-50
2022/07/20 09:14:35;;;;;;;;;;;;;;;28.56;33.08;101196.09;5063803;28;1261;-47
2022/07/20 09:17:00;;;;;;;;;;;;;;;28.69;33.25;101199.03;5072423;28;1060;-45
2022/07/20 09:19:27;;;;;;;;;;;;;;;28.70;33.03;101199.84;5047463;28;1227;-41
2022/07/20 09:21:52;;;;;;;;;;;;;;;28.70;32.72;101203.41;5069407;28;1001;-49
2022/07/20 09:24:18;;;;;;;;;;;;;;;28.51;33.38;101201.22;5074684;28;1131;-50
2022/07/20 09:26:43;;;;;;;;;;;;;;;28.34;33.43;101194.03;5068759;28;1219;-52
2022/07/20 09:29:08;;;;;;;;;;;;;;;28.62;33.78;101192.66;5073654;28;1262;-50
2022/07/20 09:31:34;;;;;;;;;;;;;;;28.38;34.57;101197.22;5077048;28;1902;-47
2022/07/20 09:34:01;;;;;;;;;;;;;;;28.23;33.94;101187.16;5067804;28;1058;-46
2022/07/20 09:36:27;;;;;;;;;;;;;;;28.28;33.58;101178.50;5065896;28;1061;-47
2022/07/20 09:38:52;;;;;;;;;;;;;;;28.16;34.44;101180.78;5077850;28;834;-47
2022/07/20 09:41:22;;;;;;;;;;;;;;;28.08;33.98;101181.69;5070361;28;1001;-47
2022/07/20 09:43:47;;;;;;;;;;;;;;;28.19;34.02;101176.91;5075130;28;1009;-48
2022/07/20 09:46:13;;;;;;;;;;;;;;;28.16;34.16;101180.78;5076657;28;989;-46
2022/07/20 09:48:43;;;;;;;;;;;;;;;28.03;34.58;101165.16;5076398;28;1024;-48
2022/07/20 09:51:23;;;;;;;;;;;;;;;28.23;34.07;101170.09;5077193;28;1902;-46
2022/07/20 09:53:49;;;;;;;;;;;;;;;28.14;34.52;101166.63;5064729;28;1168;-48
2022/07/20 09:56:15;;;;;;;;;;;;;;;28.13;34.15;101156.81;5070717;28;1084;-47
2022/07/20 09:58:41;;;;;;;;;;;;;;;28.16;34.51;101159.16;5066259;28;1256;-48
2022/07/20 10:01:06;;;;;;;;;;;;;;;28.13;34.39;101159.50;5051730;28;1101;-48
2022/07/20 10:03:32;;;;;;;;;;;;;;;28.27;34.15;101163.31;5053194;28;1241;-49
2022/07/20 10:05:57;;;;;;;;;;;;;;;28.23;34.55;101152.00;5066825;28;1012;-45
2022/07/20 10:08:22;;;;;;;;;;;;;;;28.14;34.81;101149.53;5067425;28;1176;-47
2022/07/20 10:10:48;;;;;;;;;;;;;;;28.33;34.14;101150.94;5072846;28;1898;-49
2022/07/20 10:13:13;;;;;;;;;;;;;;;28.46;34.60;101148.47;5073940;28;1083;-45
2022/07/20 10:15:51;;;;;;;;;;;;;;;28.76;33.64;101147.66;5054700;28;1240;-48
2022/07/20 10:18:16;;;;;;;;;;;;;;;28.81;33.49;101152.56;5077574;28;1004;-47
2022/07/20 10:20:42;;;;;;;;;;;;;;;28.84;33.88;101150.28;5045429;28;1065;-49
2022/07/20 10:23:16;;;;;;;;;;;;;;;28.80;33.66;101145.44;5072556;28;1037;-47
2022/07/20 10:25:42;;;;;;;;;;;;;;;28.76;34.10;101141.44;5071598;28;965;-44
2022/07/20 10:28:23;;;;;;;;;;;;;;;28.90;34.27;101137.91;5074315;28;977;-49
2022/07/20 10:30:55;;;;;;;;;;;;;;;28.91;34.12;101136.84;5065680;28;1902;-48
2022/07/20 10:33:21;;;;;;;;;;;;;;;28.91;33.53;101131.44;5068950;28;1174;-46
2022/07/20 10:35:47;;;;;;;;;;;;;;;28.94;34.21;101124.81;5067164;28;1215;-50
2022/07/20 10:38:14;;;;;;;;;;;;;;;28.96;34.10;101114.66;5073000;28;1212;-44
2022/07/20 10:41:31;;;;;;;;;;;;;;;28.93;33.68;101112.28;5068172;28;1430;-47
2022/07/20 10:43:25;;;;;;;;;;;;;;;28.87;34.35;101113.91;5070650;28;1671;-47
2022/07/20 10:45:50;;;;;;;;;;;;;;;28.98;34.26;101120.72;5074413;28;1301;-50
2022/07/20 10:48:16;;;;;;;;;;;;;;;28.84;33.71;101122.41;5062604;28;1266;-49
2022/07/20 10:51:01;;;;;;;;;;;;;;;28.89;34.34;101119.97;5070341;28;2000;-48
2022/07/20 10:53:28;;;;;;;;;;;;;;;28.92;33.92;101116.88;5044974;28;1179;-49
2022/07/20 10:55:55;;;;;;;;;;;;;;;29.03;34.58;101112.06;5068626;28;1275;-52
2022/07/20 10:58:31;;;;;;;;;;;;;;;29.06;34.35;101106.28;5066737;28;1093;-49
2022/07/20 11:01:00;;;;;;;;;;;;;;;29.02;34.59;101102.25;5069219;28;1231;-48
2022/07/20 11:03:27;;;;;;;;;;;;;;;29.11;34.58;101100.28;5062227;28;1092;-48
2022/07/20 11:05:59;;;;;;;;;;;;;;;29.08;34.37;101096.94;5065727;28;1104;-44
2022/07/20 11:08:24;;;;;;;;;;;;;;;28.99;34.58;101100.78;5065672;28;1176;-50
2022/07/20 11:10:50;;;;;;;;;;;;;;;29.14;35.06;101100.75;5063500;28;1969;-46
2022/07/20 11:13:15;;;;;;;;;;;;;;;29.10;34.78;101094.03;5068595;28;1223;-48
2022/07/20 11:15:40;;;;;;;;;;;;;;;29.04;34.98;101087.50;5069709;28;1052;-45
2022/07/20 11:18:06;;;;;;;;;;;;;;;29.00;35.05;101090.75;5069612;28;945;-44
2022/07/20 11:20:31;;;;;;;;;;;;;;;29.02;35.66;101094.13;5063429;28;985;-48
2022/07/20 11:22:57;;;;;;;;;;;;;;;29.02;35.18;101086.84;5073194;28;1476;-50
2022/07/20 11:25:24;;;;;;;;;;;;;;;29.04;35.11;101083.94;5067004;28;1027;-48
2022/07/20 11:28:01;;;;;;;;;;;;;;;29.00;35.28;101082.63;5066602;28;1377;-50
2022/07/20 11:30:33;;;;;;;;;;;;;;;28.92;35.22;101084.41;5071080;28;1894;-47
2022/07/20 11:32:59;;;;;;;;;;;;;;;28.81;36.12;101074.03;5072600;28;1088;-46
2022/07/20 11:35:24;;;;;;;;;;;;;;;29.07;35.17;101072.75;5073407;28;1044;-43
2022/07/20 11:37:50;;;;;;;;;;;;;;;29.24;34.51;101069.81;5057197;28;1028;-49
2022/07/20 11:40:16;;;;;;;;;;;;;;;29.18;35.17;101068.69;5069046;28;1163;-46
2022/07/20 11:42:41;;;;;;;;;;;;;;;29.29;35.13;101070.09;5069965;28;1042;-48
2022/07/20 11:45:07;;;;;;;;;;;;;;;29.33;35.25;101063.25;5066906;28;1079;-48
2022/07/20 11:47:32;;;;;;;;;;;;;;;29.31;35.10;101066.16;5069913;28;1492;-47
2022/07/20 11:50:07;;;;;;;;;;;;;;;29.25;35.36;101066.06;5048294;28;1926;-47
2022/07/20 11:52:41;;;;;;;;;;;;;;;29.26;35.54;101057.75;5062589;28;878;-43
2022/07/20 11:55:07;;;;;;;;;;;;;;;29.32;35.33;101062.44;5072877;28;1013;-45
2022/07/20 11:57:32;;;;;;;;;;;;;;;29.30;35.60;101053.63;5071881;28;1004;-43
2022/07/20 11:59:57;;;;;;;;;;;;;;;29.34;35.62;101056.81;5073785;28;1024;-44
2022/07/20 12:02:23;;;;;;;;;;;;;;;29.37;35.40;101059.13;5073463;28;1116;-45
2022/07/20 12:04:48;;;;;;;;;;;;;;;29.41;35.39;101060.41;5055329;28;919;-44
2022/07/20 12:10:06;;;;;;;;;;;;;;;29.25;35.67;101058.78;5067950;28;1906;-45
2022/07/20 12:12:47;;;;;;;;;;;;;;;29.31;35.81;101049.06;5048527;28;1037;-43
2022/07/20 12:15:13;;;;;;;;;;;;;;;29.39;34.39;101056.22;5060801;28;1012;-45
2022/07/20 12:17:46;;;;;;;;;;;;;;;29.48;35.08;101048.84;5067679;28;1135;-45
2022/07/20 12:20:11;;;;;;;;;;;;;;;29.42;34.52;101047.72;5070217;28;993;-42
2022/07/20 12:22:36;;;;;;;;;;;;;;;29.37;34.05;101034.75;5062792;28;1250;-43
2022/07/20 12:25:05;;;;;;;;;;;;;;;29.42;34.34;101050.44;5071123;28;1099;-45
2022/07/20 12:27:31;;;;;;;;;;;;;;;29.46;33.74;101051.75;5065935;28;1249;-46
2022/07/20 12:29:57;;;;;;;;;;;;;;;29.51;33.47;101049.25;5072606;28;1960;-47
2022/07/20 12:32:29;;;;;;;;;;;;;;;29.46;32.79;101043.59;5072188;28;1155;-49
2022/07/20 12:34:54;;;;;;;;;;;;;;;29.50;32.67;101050.31;5064345;28;1072;-41
2022/07/20 12:37:20;;;;;;;;;;;;;;;29.72;31.62;101046.78;5063230;28;1135;-48
2022/07/20 12:39:53;;;;;;;;;;;;;;;29.74;31.33;101045.59;5067671;28;793;-44
2022/07/20 12:42:29;;;;;;;;;;;;;;;29.72;30.51;101035.94;5068014;28;972;-51
2022/07/20 12:44:57;;;;;;;;;;;;;;;29.78;30.46;101044.16;5065680;28;1024;-49
2022/07/20 12:47:23;;;;;;;;;;;;;;;29.80;30.37;101035.81;5069267;28;1000;-52